Time,TemperatureF,DewpointF,PressureIn,WindDirection,WindDirectionDegrees,WindSpeedMPH,WindSpeedGustMPH,Humidity,HourlyPrecipIn,Conditions,Clouds,dailyrainin,SoftwareType,DateUTC
2013-05-01 00:00:00,63.5,25.1,30.03,North,0,0.0,0.0,23,0.00,,---,0.00,VWS V14.01,2013-04-30 22:00:00,
2013-05-01 00:14:00,63.1,22.6,30.06,North,0,0.0,0.0,21,0.00,,---,0.00,VWS V14.01,2013-04-30 22:14:00,
2013-05-01 00:29:00,63.5,22.9,30.03,North,0,0.0,0.0,21,0.00,,---,0.00,VWS V14.01,2013-04-30 22:29:00,
2013-05-01 00:44:00,63.1,22.6,30.06,North,0,0.0,0.0,21,0.00,,---,0.00,VWS V14.01,2013-04-30 22:44:00,
2013-05-01 00:59:00,62.6,22.1,30.06,North,0,0.0,0.0,21,0.00,,---,0.00,VWS V14.01,2013-04-30 22:59:00,
2013-05-01 01:14:00,63.3,19.1,30.06,North,0,0.0,0.0,18,0.00,,---,0.00,VWS V14.01,2013-04-30 23:14:00,
2013-05-01 01:29:00,63.1,19.0,30.06,North,0,0.0,0.0,18,0.00,,---,0.00,VWS V14.01,2013-04-30 23:29:00,
2013-05-01 01:44:00,61.5,21.2,30.06,North,0,0.0,0.0,21,0.00,,---,0.00,VWS V14.01,2013-04-30 23:44:00,
2013-05-01 01:59:00,61.5,21.2,30.06,North,0,0.0,0.0,21,0.00,,---,0.00,VWS V14.01,2013-04-30 23:59:00,
2013-05-01 02:14:00,62.2,21.9,30.06,North,0,0.0,0.0,21,0.00,,---,0.00,VWS V14.01,2013-05-01 00:14:00,
2013-05-01 02:29:00,62.2,21.9,30.06,North,0,0.0,0.0,21,0.00,,---,0.00,VWS V14.01,2013-05-01 00:29:00,
2013-05-01 02:45:00,63.0,22.5,30.06,North,0,0.0,0.0,21,0.00,,---,0.00,VWS V14.01,2013-05-01 00:45:00,
2013-05-01 02:59:00,63.0,22.5,30.03,North,0,0.0,0.0,21,0.00,,---,0.00,VWS V14.01,2013-05-01 00:59:00,
2013-05-01 03:14:00,62.8,22.3,30.03,North,0,0.0,0.0,21,0.00,,---,0.00,VWS V14.01,2013-05-01 01:14:00,
2013-05-01 03:30:00,62.8,22.3,30.03,North,0,0.0,0.0,21,0.00,,---,0.00,VWS V14.01,2013-05-01 01:30:00,
2013-05-01 03:44:00,62.2,21.9,30.03,North,0,0.0,0.0,21,0.00,,---,0.00,VWS V14.01,2013-05-01 01:44:00,
2013-05-01 03:59:00,61.9,21.5,30.03,North,0,0.0,0.0,21,0.00,,---,0.00,VWS V14.01,2013-05-01 01:59:00,
2013-05-01 04:14:00,60.6,21.6,30.03,North,0,0.0,0.0,22,0.00,,---,0.00,VWS V14.01,2013-05-01 02:14:00,
2013-05-01 04:29:00,60.8,23.8,30.03,North,0,0.0,0.0,24,0.00,,---,0.00,VWS V14.01,2013-05-01 02:29:00,
2013-05-01 04:44:00,60.3,23.4,30.06,North,0,0.0,0.0,24,0.00,,---,0.00,VWS V14.01,2013-05-01 02:44:00,
2013-05-01 04:59:00,58.8,23.1,30.03,North,0,0.0,0.0,25,0.00,,---,0.00,VWS V14.01,2013-05-01 02:59:00,
2013-05-01 05:14:00,59.2,24.3,30.03,North,0,0.0,0.0,26,0.00,,---,0.00,VWS V14.01,2013-05-01 03:14:00,
2013-05-01 05:29:00,60.8,23.8,30.03,North,0,0.0,0.0,24,0.00,,---,0.00,VWS V14.01,2013-05-01 03:29:00,
2013-05-01 05:44:00,58.8,23.1,30.03,North,0,0.0,0.0,25,0.00,,---,0.00,VWS V14.01,2013-05-01 03:44:00,
2013-05-01 05:59:00,58.6,23.9,30.03,North,0,0.0,0.0,26,0.00,,---,0.00,VWS V14.01,2013-05-01 03:59:00,
2013-05-01 06:14:00,60.6,24.6,30.03,North,0,0.0,0.0,25,0.00,,---,0.00,VWS V14.01,2013-05-01 04:14:00,
2013-05-01 06:29:00,61.5,24.4,30.03,North,0,0.0,0.0,24,0.00,,---,0.00,VWS V14.01,2013-05-01 04:29:00,
2013-05-01 06:44:00,61.0,24.0,30.03,North,0,0.0,0.0,24,0.00,,---,0.00,VWS V14.01,2013-05-01 04:44:00,
2013-05-01 06:59:00,60.4,24.5,30.03,North,0,0.0,0.0,25,0.00,,---,0.00,VWS V14.01,2013-05-01 04:59:00,
2013-05-01 07:14:00,61.0,24.9,30.03,North,0,0.0,0.0,25,0.00,,---,0.00,VWS V14.01,2013-05-01 05:14:00,
2013-05-01 07:29:00,62.1,26.8,30.03,North,0,0.0,0.0,26,0.00,,---,0.00,VWS V14.01,2013-05-01 05:29:00,
2013-05-01 07:44:00,63.1,28.6,30.03,North,0,0.0,0.0,27,0.00,,---,0.00,VWS V14.01,2013-05-01 05:44:00,
2013-05-01 07:59:00,65.1,30.3,30.03,North,0,0.0,0.0,27,0.00,,---,0.00,VWS V14.01,2013-05-01 05:59:00,
2013-05-01 08:14:00,66.0,31.1,30.03,North,0,0.0,0.0,27,0.00,,---,0.00,VWS V14.01,2013-05-01 06:14:00,
2013-05-01 08:29:00,67.6,32.5,30.03,North,0,0.0,0.0,27,0.00,,---,0.00,VWS V14.01,2013-05-01 06:29:00,
2013-05-01 08:44:00,68.7,32.5,30.03,North,0,0.0,0.0,26,0.00,,---,0.00,VWS V14.01,2013-05-01 06:44:00,
2013-05-01 08:59:00,70.0,31.6,30.03,North,0,0.0,0.0,24,0.00,,---,0.00,VWS V14.01,2013-05-01 06:59:00,
2013-05-01 09:14:00,70.7,31.1,30.03,North,0,0.0,0.0,23,0.00,,---,0.00,VWS V14.01,2013-05-01 07:14:00,
2013-05-01 09:29:00,71.1,31.4,30.03,North,0,0.0,0.0,23,0.00,,---,0.00,VWS V14.01,2013-05-01 07:29:00,
2013-05-01 09:44:00,71.6,30.8,30.03,North,0,0.0,0.0,22,0.00,,---,0.00,VWS V14.01,2013-05-01 07:44:00,
2013-05-01 09:59:00,72.9,30.7,30.03,North,0,0.0,0.0,21,0.00,,---,0.00,VWS V14.01,2013-05-01 07:59:00,
2013-05-01 10:14:00,75.2,28.8,30.03,North,0,0.0,0.0,18,0.00,,---,0.00,VWS V14.01,2013-05-01 08:14:00,
2013-05-01 10:29:00,76.5,29.9,30.03,North,0,0.0,0.0,18,0.00,,---,0.00,VWS V14.01,2013-05-01 08:29:00,
2013-05-01 10:44:00,77.4,26.1,30.03,North,0,0.0,0.0,15,0.00,,---,0.00,VWS V14.01,2013-05-01 08:44:00,
2013-05-01 10:59:00,77.7,26.4,30.03,North,0,0.0,0.0,15,0.00,,---,0.00,VWS V14.01,2013-05-01 08:59:00,
2013-05-01 11:14:00,77.7,26.4,30.03,North,0,0.0,0.0,15,0.00,,---,0.00,VWS V14.01,2013-05-01 09:14:00,
2013-05-01 11:29:00,78.4,27.0,30.03,North,0,0.0,0.0,15,0.00,,---,0.00,VWS V14.01,2013-05-01 09:29:00,
2013-05-01 11:44:00,78.6,27.1,30.03,North,0,0.0,0.0,15,0.00,,---,0.00,VWS V14.01,2013-05-01 09:44:00,
2013-05-01 11:59:00,79.0,27.4,30.03,North,0,0.0,0.0,15,0.00,,---,0.00,VWS V14.01,2013-05-01 09:59:00,
2013-05-01 12:14:00,79.3,27.7,30.03,North,0,0.0,0.0,15,0.00,,---,0.00,VWS V14.01,2013-05-01 10:14:00,
2013-05-01 12:29:00,79.7,28.0,30.03,North,0,0.0,0.0,15,0.00,,---,0.00,VWS V14.01,2013-05-01 10:29:00,
2013-05-01 12:44:00,80.1,28.3,30.03,North,0,0.0,0.0,15,0.00,,---,0.00,VWS V14.01,2013-05-01 10:44:00,
2013-05-01 12:59:00,80.4,28.6,30.03,North,0,0.0,0.0,15,0.00,,---,0.00,VWS V14.01,2013-05-01 10:59:00,
2013-05-01 13:14:00,79.9,28.1,30.03,North,0,0.0,0.0,15,0.00,,---,0.00,VWS V14.01,2013-05-01 11:14:00,
2013-05-01 13:29:00,78.3,26.9,30.03,North,0,0.0,0.0,15,0.00,,---,0.00,VWS V14.01,2013-05-01 11:29:00,
2013-05-01 13:44:00,77.2,26.0,30.03,North,0,0.0,0.0,15,0.00,,---,0.00,VWS V14.01,2013-05-01 11:44:00,
2013-05-01 13:59:00,75.9,29.4,30.03,North,0,0.0,0.0,18,0.00,,---,0.00,VWS V14.01,2013-05-01 11:59:00,
2013-05-01 14:14:00,76.3,29.7,30.03,North,0,0.0,0.0,18,0.00,,---,0.00,VWS V14.01,2013-05-01 12:14:00,
2013-05-01 14:29:00,76.6,30.0,30.00,North,0,0.0,0.0,18,0.00,,---,0.00,VWS V14.01,2013-05-01 12:29:00,
2013-05-01 14:44:00,77.4,30.6,30.00,North,0,0.0,0.0,18,0.00,,---,0.00,VWS V14.01,2013-05-01 12:44:00,
2013-05-01 14:59:00,77.7,30.9,30.00,North,0,0.0,0.0,18,0.00,,---,0.00,VWS V14.01,2013-05-01 12:59:00,
2013-05-01 15:14:00,76.3,25.3,30.00,North,0,0.0,0.0,15,0.00,,---,0.00,VWS V14.01,2013-05-01 13:14:00,
2013-05-01 15:29:00,75.0,28.7,30.00,North,0,0.0,0.0,18,0.00,,---,0.00,VWS V14.01,2013-05-01 13:29:00,
2013-05-01 15:44:00,75.2,28.8,30.00,North,0,0.0,0.0,18,0.00,,---,0.00,VWS V14.01,2013-05-01 13:44:00,
2013-05-01 15:59:00,75.4,29.0,30.00,North,0,0.0,0.0,18,0.00,,---,0.00,VWS V14.01,2013-05-01 13:59:00,
2013-05-01 16:14:00,75.4,29.0,30.00,North,0,0.0,0.0,18,0.00,,---,0.00,VWS V14.01,2013-05-01 14:14:00,
2013-05-01 16:29:00,74.3,31.9,30.00,North,0,0.0,0.0,21,0.00,,---,0.00,VWS V14.01,2013-05-01 14:29:00,
2013-05-01 16:44:00,73.6,31.3,30.00,North,0,0.0,0.0,21,0.00,,---,0.00,VWS V14.01,2013-05-01 14:44:00,
2013-05-01 16:59:00,74.3,31.9,30.00,North,0,0.0,0.0,21,0.00,,---,0.00,VWS V14.01,2013-05-01 14:59:00,
2013-05-01 17:14:00,75.2,24.4,30.00,North,0,0.0,0.0,15,0.00,,---,0.00,VWS V14.01,2013-05-01 15:14:00,
2013-05-01 17:29:00,75.7,24.9,30.00,North,0,0.0,0.0,15,0.00,,---,0.00,VWS V14.01,2013-05-01 15:29:00,
2013-05-01 17:44:00,75.7,24.9,30.00,North,0,0.0,0.0,15,0.00,,---,0.00,VWS V14.01,2013-05-01 15:44:00,
2013-05-01 17:59:00,75.0,25.8,30.00,North,0,0.0,0.0,16,0.00,,---,0.00,VWS V14.01,2013-05-01 15:59:00,
2013-05-01 18:14:00,74.5,25.4,29.97,North,0,0.0,0.0,16,0.00,,---,0.00,VWS V14.01,2013-05-01 16:14:00,
2013-05-01 18:29:00,73.9,25.0,29.97,North,0,0.0,0.0,16,0.00,,---,0.00,VWS V14.01,2013-05-01 16:29:00,
2013-05-01 18:44:00,73.4,24.5,29.97,North,0,0.0,0.0,16,0.00,,---,0.00,VWS V14.01,2013-05-01 16:44:00,
2013-05-01 18:59:00,72.5,23.8,29.97,North,0,0.0,0.0,16,0.00,,---,0.00,VWS V14.01,2013-05-01 16:59:00,
2013-05-01 19:14:00,71.8,23.2,29.97,North,0,0.0,0.0,16,0.00,,---,0.00,VWS V14.01,2013-05-01 17:14:00,
2013-05-01 19:29:00,70.9,23.9,29.97,North,0,0.0,0.0,17,0.00,,---,0.00,VWS V14.01,2013-05-01 17:29:00,
2013-05-01 19:44:00,70.2,23.4,29.97,North,0,0.0,0.0,17,0.00,,---,0.00,VWS V14.01,2013-05-01 17:44:00,
2013-05-01 19:59:00,70.0,23.2,29.97,North,0,0.0,0.0,17,0.00,,---,0.00,VWS V14.01,2013-05-01 17:59:00,
2013-05-01 20:14:00,69.8,23.1,29.97,North,0,0.0,0.0,17,0.00,,---,0.00,VWS V14.01,2013-05-01 18:14:00,
2013-05-01 20:29:00,69.1,22.5,29.97,North,0,0.0,0.0,17,0.00,,---,0.00,VWS V14.01,2013-05-01 18:29:00,
2013-05-01 20:44:00,68.7,26.1,29.97,North,0,0.0,0.0,20,0.00,,---,0.00,VWS V14.01,2013-05-01 18:44:00,
2013-05-01 20:59:00,68.4,25.8,30.00,North,0,0.0,0.0,20,0.00,,---,0.00,VWS V14.01,2013-05-01 18:59:00,
2013-05-01 21:14:00,67.5,25.0,30.00,North,0,0.0,0.0,20,0.00,,---,0.00,VWS V14.01,2013-05-01 19:14:00,
2013-05-01 21:29:00,66.9,26.9,30.00,North,0,0.0,0.0,22,0.00,,---,0.00,VWS V14.01,2013-05-01 19:29:00,
2013-05-01 21:44:00,66.7,26.7,30.00,North,0,0.0,0.0,22,0.00,,---,0.00,VWS V14.01,2013-05-01 19:44:00,
2013-05-01 21:59:00,66.4,27.5,30.00,North,0,0.0,0.0,23,0.00,,---,0.00,VWS V14.01,2013-05-01 19:59:00,
2013-05-01 22:14:00,66.4,27.5,30.00,North,0,0.0,0.0,23,0.00,,---,0.00,VWS V14.01,2013-05-01 20:14:00,
2013-05-01 22:29:00,65.7,28.9,30.00,North,0,0.0,0.0,25,0.00,,---,0.00,VWS V14.01,2013-05-01 20:29:00,
2013-05-01 22:44:00,64.8,32.6,30.00,North,0,0.0,0.0,30,0.00,,---,0.00,VWS V14.01,2013-05-01 20:44:00,
2013-05-01 22:59:00,64.4,34.7,30.00,North,0,0.0,0.0,33,0.00,,---,0.00,VWS V14.01,2013-05-01 20:59:00,
2013-05-01 23:15:00,64.4,32.3,30.00,North,0,0.0,0.0,30,0.00,,---,0.00,VWS V14.01,2013-05-01 21:15:00,
2013-05-01 23:30:00,64.8,30.0,29.97,North,0,0.0,0.0,27,0.00,,---,0.00,VWS V14.01,2013-05-01 21:30:00,
2013-05-01 23:45:00,65.1,28.5,29.97,North,0,0.0,0.0,25,0.00,,---,0.00,VWS V14.01,2013-05-01 21:45:00,